Startpagina
METAR-TAF:

METAR-TAF

Vliegvelden :

Honiara International Airport

Honiara, Guadalcanal, Salomonseilanden

breedte: 09-25S, lengte: 160-03E, hoogte: 8 m

Actueel weer

Dit bericht is 1 uur en het 8 minuten geleden gemaakt, om 08:00 UTC
Wind 4 kt uit het westen
Temperatuur 25°C
Vochtigheid 94%
Druk 1009 hPa
Zicht 10 km of meer
Weinig wolken op 1600 ft
Verspreide wolken op 2800 ft
Gebroken wolken op 30000 ft

METAR: AGGH 190800Z 27004KT 9999 FEW016 SCT028 BKN300 25/24 Q1009

Tijdstip: 20:08 (09:08 UTC)

Verwachting

Dit bericht is 4 uur en het 38 minuten geleden gemaakt, om 04:30 UTC
Verwachting geldig van 19 om 06 UTC tot 20 om 06 UTC
Wind 8 kt uit het noordoosten
Zicht 10 km of meer
Weinig wolken op 1800 ft
Verspreide wolken op 2900 ft
Van 19 om 0800 UTC
Wind 3 kt uit variabele richting
Zicht: 1009 m
Weinig wolken op 1700 ft

TAF: AGGH 190430Z 1906/2006 05008KT 9999 FEW018 SCT029 FM190800 VRB03KT 9999 FEW017 T 30 28 26 25 Q 1007 1009 1010 1009

Waarnemingen en weersverwachtingen van meer dan 4000 vliegvelden (METAR en TAF).

De beschikbare stations zijn de gele en rode punten op de kaart.

Ga met uw muis naar het station om de naam te zien.

Klik dan om waarnemingen en weersverwachtingen te zien.

kaart wijzigen: klik op de groene knoppen met een zwart kruis om in te zoomen, op de groene knop met een streepje om uit te zoomen of op de groene pijlen voor aangrenzende kaarten.


METAR-TAF: